Time;durP1;ratioP1;P1;durP2;ratioP2;P2;SDS_P1;SDS_P2;PMS_P1;PMS_P2;Temp;Humidity;BMP_temperature;BMP_pressure;BME280_temperature;BME280_humidity;BME280_pressure;Samples;Min_cycle;Max_cycle;Signal;HPM_P1;HPM_P2
2022/04/30 00:02:07;;;;;;;;;32.25;26.75;;;;;14.23;65.11;102297.19;5080073;27;45812;-83
2022/04/30 00:04:40;;;;;;;;;26.25;23.25;;;;;14.17;65.11;102283.81;5080140;28;45274;-82
2022/04/30 00:07:07;;;;;;;;;51.00;40.00;;;;;14.39;65.13;102318.03;5079799;27;45335;-82
2022/04/30 00:09:33;;;;;;;;;63.00;49.50;;;;;14.54;65.02;102358.75;5080231;27;46636;-82
2022/04/30 00:12:00;;;;;;;;;63.50;48.25;;;;;14.51;65.47;102358.59;5080372;28;45798;-82
2022/04/30 00:14:27;;;;;;;;;66.75;51.50;;;;;14.50;64.92;102364.63;5078354;28;45305;-82
2022/04/30 00:16:53;;;;;;;;;52.75;43.00;;;;;14.47;66.42;102361.88;5080341;27;45442;-82
2022/04/30 00:19:21;;;;;;;;;33.50;31.00;;;;;14.38;66.46;102362.25;5081091;27;47000;-82
2022/04/30 00:21:48;;;;;;;;;31.75;27.00;;;;;14.06;67.04;102315.41;5081230;27;45756;-81
2022/04/30 00:24:17;;;;;;;;;28.50;26.50;;;;;14.21;67.95;102348.31;5081416;27;45339;-82
2022/04/30 00:26:46;;;;;;;;;31.00;28.00;;;;;14.08;68.15;102336.34;5083039;27;45447;-82
2022/04/30 00:29:12;;;;;;;;;30.25;28.75;;;;;14.19;69.71;102368.16;5080530;27;46913;-82
2022/04/30 00:31:39;;;;;;;;;32.75;28.75;;;;;14.12;70.16;102372.13;5077095;27;45456;-82
2022/04/30 00:34:05;;;;;;;;;31.00;26.50;;;;;14.05;70.75;102363.09;5058477;28;45417;-83
2022/04/30 00:36:31;;;;;;;;;32.50;30.25;;;;;14.02;71.68;102377.66;5059876;28;45679;-81
2022/04/30 00:38:57;;;;;;;;;29.50;27.50;;;;;13.95;71.57;102363.38;5058853;28;45431;-83
2022/04/30 00:41:23;;;;;;;;;62.00;46.25;;;;;13.83;72.08;102352.28;5059001;28;45338;-82
2022/04/30 00:43:51;;;;;;;;;70.50;54.00;;;;;13.95;72.15;102373.78;5058718;28;45414;-83
2022/04/30 00:46:23;;;;;;;;;91.75;77.75;;;;;13.99;72.66;102374.84;5058455;28;45224;-82
2022/04/30 00:48:50;;;;;;;;;90.75;75.75;;;;;13.83;73.11;102358.41;5058483;28;45356;-82
2022/04/30 00:51:19;;;;;;;;;77.00;64.75;;;;;13.86;73.54;102383.69;5057220;28;45782;-81
2022/04/30 00:53:52;;;;;;;;;88.50;73.50;;;;;13.76;74.81;102375.38;5056942;28;45328;-83
2022/04/30 00:56:45;;;;;;;;;78.00;65.50;;;;;13.78;75.20;102371.16;5073805;28;45618;-82
2022/04/30 00:59:17;;;;;;;;;83.50;70.50;;;;;13.69;75.24;102355.00;5051348;28;46280;-83
2022/04/30 01:01:44;;;;;;;;;100.50;86.75;;;;;13.73;75.42;102364.78;5057584;28;45517;-82
2022/04/30 01:04:10;;;;;;;;;109.00;88.50;;;;;13.70;76.39;102346.41;5059452;28;45424;-83
2022/04/30 01:07:00;;;;;;;;;99.00;87.75;;;;;13.80;76.42;102373.84;5060522;28;45517;-82
2022/04/30 01:09:31;;;;;;;;;89.25;80.00;;;;;13.60;77.06;102346.69;5060645;28;46750;-82
2022/04/30 01:12:03;;;;;;;;;103.25;88.75;;;;;13.61;77.97;102367.59;5061027;28;45236;-82
2022/04/30 01:14:31;;;;;;;;;139.00;114.25;;;;;13.42;78.47;102334.41;5061317;28;45353;-80
2022/04/30 01:17:00;;;;;;;;;157.50;136.00;;;;;13.29;78.18;102313.66;5060315;28;45198;-82
2022/04/30 01:19:27;;;;;;;;;131.75;114.50;;;;;13.61;79.52;102370.19;5058492;28;46331;-83
2022/04/30 01:21:58;;;;;;;;;110.33;90.33;;;;;13.23;79.99;102308.09;4946601;27;3228048;-84
2022/04/30 01:24:26;;;;;;;;;103.75;93.25;;;;;13.40;80.90;102350.72;5061206;28;45318;-83
2022/04/30 01:26:53;;;;;;;;;78.00;64.50;;;;;13.38;81.02;102349.72;5060352;28;45534;-82
2022/04/30 01:29:21;;;;;;;;;71.00;56.25;;;;;13.13;81.49;102309.25;5058707;28;45402;-82
2022/04/30 01:37:25;;;;;;;;;66.75;50.50;;;;;13.36;81.99;102351.31;5058780;28;45411;-82
2022/04/30 01:39:59;;;;;;;;;84.50;72.00;;;;;13.39;81.01;102356.72;5058233;28;45518;-82
2022/04/30 01:42:31;;;;;;;;;91.50;76.75;;;;;13.12;81.56;102302.28;5057643;28;45480;-82
2022/04/30 01:44:58;;;;;;;;;90.75;81.50;;;;;13.39;82.49;102354.09;5058181;28;45318;-84
2022/04/30 01:47:25;;;;;;;;;75.25;60.00;;;;;13.22;82.28;102329.72;5057819;28;45452;-82
2022/04/30 01:49:52;;;;;;;;;64.50;50.25;;;;;13.32;82.21;102348.56;5060495;28;46506;-83
2022/04/30 01:52:18;;;;;;;;;81.00;70.50;;;;;13.28;83.42;102335.28;5061186;28;45631;-83
2022/04/30 01:54:47;;;;;;;;;89.25;81.75;;;;;13.07;83.15;102312.38;5063639;28;45402;-84
2022/04/30 01:57:15;;;;;;;;;71.25;52.50;;;;;13.10;83.64;102315.19;5064052;28;45474;-84
2022/04/30 01:59:41;;;;;;;;;58.25;46.25;;;;;12.85;83.57;102281.66;5062187;28;45496;-83
2022/04/30 02:02:07;;;;;;;;;48.75;39.00;;;;;13.01;84.00;102301.66;5061746;28;45711;-82
2022/04/30 02:04:35;;;;;;;;;37.50;33.00;;;;;13.20;83.84;102327.03;5061713;28;45477;-83
2022/04/30 02:07:02;;;;;;;;;38.00;33.25;;;;;13.07;83.41;102321.91;5060277;28;45624;-84
2022/04/30 02:09:32;;;;;;;;;35.75;30.50;;;;;12.85;83.97;102282.53;5059240;28;45549;-83
2022/04/30 02:11:59;;;;;;;;;35.25;30.75;;;;;12.90;84.13;102294.91;5058549;28;45281;-83
2022/04/30 02:14:30;;;;;;;;;37.25;31.25;;;;;13.06;84.07;102323.63;5058530;28;45302;-83
2022/04/30 02:16:58;;;;;;;;;36.00;31.00;;;;;12.45;84.29;102224.72;5058486;28;45395;-84
2022/04/30 02:19:28;;;;;;;;;37.75;34.00;;;;;12.85;85.10;102292.94;5057316;28;46116;-83
2022/04/30 02:21:57;;;;;;;;;41.50;35.25;;;;;13.01;85.11;102307.72;5057649;28;45448;-83
2022/04/30 02:24:26;;;;;;;;;38.00;32.00;;;;;13.07;85.28;102306.31;5055753;28;45328;-82
2022/04/30 02:26:52;;;;;;;;;33.50;30.00;;;;;12.82;84.48;102252.88;5057963;28;45236;-81
2022/04/30 02:29:17;;;;;;;;;37.25;33.50;;;;;12.83;85.19;102249.47;5057621;28;46617;-83
2022/04/30 02:31:44;;;;;;;;;32.75;29.25;;;;;13.18;84.68;102313.03;5067157;27;45509;-83
2022/04/30 02:34:10;;;;;;;;;30.75;27.75;;;;;13.22;84.56;102325.44;5080334;27;45475;-84
2022/04/30 02:36:36;;;;;;;;;36.75;31.00;;;;;13.16;83.96;102306.84;5082225;28;45522;-83
2022/04/30 02:39:02;;;;;;;;;36.50;30.25;;;;;13.20;84.37;102315.72;5079390;27;48206;-83
2022/04/30 02:41:29;;;;;;;;;35.00;28.50;;;;;13.09;84.54;102302.97;5082078;27;45261;-82
2022/04/30 02:43:56;;;;;;;;;31.25;28.50;;;;;13.22;85.31;102320.22;5077650;27;45264;-82
2022/04/30 02:46:22;;;;;;;;;33.50;28.25;;;;;13.23;85.04;102323.69;5079604;27;45974;-84
2022/04/30 02:48:48;;;;;;;;;28.00;26.50;;;;;13.14;85.24;102308.44;5079261;27;45481;-84
2022/04/30 02:51:17;;;;;;;;;31.25;25.50;;;;;13.18;85.40;102312.13;5077002;27;45420;-84
2022/04/30 02:53:43;;;;;;;;;38.75;29.00;;;;;13.17;84.96;102316.44;5075546;28;45252;-84
2022/04/30 02:56:12;;;;;;;;;30.25;23.75;;;;;13.21;85.48;102314.91;5076684;27;45247;-83
2022/04/30 03:01:28;;;;;;;;;34.50;30.00;;;;;13.23;85.54;102316.78;5076287;28;45369;-84
2022/04/30 03:03:54;;;;;;;;;34.25;29.00;;;;;13.20;84.95;102311.44;5077664;27;45379;-84
2022/04/30 03:06:20;;;;;;;;;32.25;28.50;;;;;13.13;85.51;102307.56;5075700;27;45589;-84
2022/04/30 03:08:47;;;;;;;;;29.25;27.00;;;;;12.97;86.08;102282.38;5075499;28;47832;-83
2022/04/30 03:11:13;;;;;;;;;28.00;26.00;;;;;13.12;85.85;102308.38;5077334;27;45449;-83
2022/04/30 03:13:40;;;;;;;;;32.50;28.00;;;;;12.78;85.50;102250.91;5075937;28;45418;-85
2022/04/30 03:21:46;;;;;;;;;29.75;27.25;;;;;13.03;87.29;102304.31;5084078;28;45295;-83
2022/04/30 03:24:16;;;;;;;;;26.00;25.00;;;;;13.04;86.83;102301.84;5082984;27;45399;-84
2022/04/30 03:26:43;;;;;;;;;26.75;24.75;;;;;13.03;87.14;102310.44;5080198;28;45546;-84
2022/04/30 03:29:10;;;;;;;;;35.25;30.25;;;;;13.01;87.11;102305.13;5077941;27;45390;-83
2022/04/30 03:31:39;;;;;;;;;28.50;27.00;;;;;12.99;86.71;102298.97;5077536;28;45343;-83
2022/04/30 03:34:14;;;;;;;;;33.00;29.00;;;;;12.96;86.88;102293.56;5077194;27;45294;-83
2022/04/30 03:36:41;;;;;;;;;30.50;26.50;;;;;12.93;87.41;102293.38;5077881;27;45178;-82
2022/04/30 03:39:07;;;;;;;;;31.25;29.25;;;;;12.68;87.80;102252.97;5077775;27;46121;-84
2022/04/30 03:41:33;;;;;;;;;32.75;29.25;;;;;12.74;87.92;102270.59;5078959;27;45424;-84
2022/04/30 03:43:59;;;;;;;;;29.00;26.75;;;;;12.75;88.53;102284.50;5080611;28;45476;-84
2022/04/30 03:46:27;;;;;;;;;33.50;29.75;;;;;12.49;87.97;102235.38;5078202;27;45365;-83
2022/04/30 03:48:53;;;;;;;;;31.75;28.50;;;;;12.78;88.47;102282.09;5077073;28;46323;-82
2022/04/30 03:51:25;;;;;;;;;28.50;28.00;;;;;12.64;88.01;102260.47;5075610;28;45343;-83
2022/04/30 03:53:53;;;;;;;;;32.75;29.50;;;;;12.59;88.46;102262.78;5077000;27;45453;-83
2022/04/30 03:56:22;;;;;;;;;38.00;29.75;;;;;12.48;88.80;102258.66;5078907;27;45326;-84
2022/04/30 03:58:48;;;;;;;;;37.00;30.25;;;;;12.22;88.69;102216.44;5076154;27;46741;-83
2022/04/30 04:01:18;;;;;;;;;27.00;26.00;;;;;12.41;88.78;102251.31;5077848;27;46001;-83
2022/04/30 04:03:44;;;;;;;;;37.00;31.50;;;;;12.59;89.23;102282.69;5080938;27;45421;-83
2022/04/30 04:06:13;;;;;;;;;29.00;26.25;;;;;12.60;89.31;102289.69;5082488;27;45268;-79
2022/04/30 04:08:42;;;;;;;;;31.50;27.75;;;;;12.60;88.96;102279.28;5083798;27;46176;-81
2022/04/30 04:11:13;;;;;;;;;32.50;26.75;;;;;12.71;89.41;102304.22;5080635;28;45338;-83
2022/04/30 04:19:09;;;;;;;;;35.50;30.25;;;;;12.47;90.37;102282.88;5077417;27;45653;-83
2022/04/30 04:21:35;;;;;;;;;32.75;24.25;;;;;12.51;91.41;102303.91;5078883;27;45458;-82
2022/04/30 04:26:45;;;;;;;;;35.50;30.00;;;;;12.46;91.91;102291.47;5078978;28;45341;-84
2022/04/30 04:29:11;;;;;;;;;35.50;29.50;;;;;12.54;91.71;102309.28;5078464;27;45323;-84
2022/04/30 04:31:37;;;;;;;;;32.75;27.25;;;;;12.42;91.69;102287.75;5077693;27;45471;-80
2022/04/30 04:34:03;;;;;;;;;32.00;29.00;;;;;12.46;92.21;102291.47;5076094;27;45531;-83
2022/04/30 04:36:29;;;;;;;;;28.75;27.75;;;;;12.52;91.96;102297.00;5079633;27;45555;-86
2022/04/30 04:38:54;;;;;;;;;35.00;32.75;;;;;12.52;91.41;102295.31;5082653;28;46309;-84
2022/04/30 04:41:20;;;;;;;;;31.75;28.25;;;;;12.59;90.95;102312.16;5081708;28;45357;-78
2022/04/30 04:43:45;;;;;;;;;30.00;26.50;;;;;12.60;91.18;102318.25;5078159;27;45305;-80
2022/04/30 04:46:11;;;;;;;;;27.00;26.00;;;;;12.53;91.46;102315.28;5077343;28;45177;-80
2022/04/30 04:48:37;;;;;;;;;33.00;29.25;;;;;12.54;92.03;102318.78;5085465;27;45432;-78
2022/04/30 04:51:03;;;;;;;;;29.50;27.75;;;;;12.54;92.18;102326.59;5085503;27;45705;-81
2022/04/30 04:53:29;;;;;;;;;30.75;28.50;;;;;12.47;92.39;102314.03;5077117;27;45487;-80
2022/04/30 04:55:55;;;;;;;;;34.50;29.50;;;;;12.42;92.71;102305.94;5089890;27;45558;-81
2022/04/30 04:58:20;;;;;;;;;36.00;29.00;;;;;12.57;92.20;102331.06;5098269;27;45794;-81
2022/04/30 05:00:46;;;;;;;;;34.00;29.50;;;;;12.52;92.00;102326.50;5098907;27;45313;-81
2022/04/30 05:03:13;;;;;;;;;29.25;25.00;;;;;12.53;92.68;102327.38;5098932;27;45172;-79
2022/04/30 05:05:39;;;;;;;;;35.50;31.50;;;;;12.42;92.84;102315.44;5097905;27;45263;-81
2022/04/30 05:08:04;;;;;;;;;39.75;30.50;;;;;12.48;93.20;102315.81;5076368;27;46711;-77
2022/04/30 05:10:30;;;;;;;;;38.00;31.00;;;;;12.65;92.81;102342.81;5074553;28;45456;-77
2022/04/30 05:12:56;;;;;;;;;35.25;31.00;;;;;12.66;92.43;102327.34;5076699;27;45343;-77
2022/04/30 05:15:22;;;;;;;;;35.75;30.75;;;;;12.67;92.09;102336.00;5076159;27;46099;-77
2022/04/30 05:17:47;;;;;;;;;31.00;29.25;;;;;12.63;91.88;102342.72;5075077;27;45448;-77
2022/04/30 05:20:13;;;;;;;;;34.00;28.75;;;;;12.60;93.07;102342.53;5075506;27;45605;-78
2022/04/30 05:22:38;;;;;;;;;36.00;30.75;;;;;12.50;93.35;102332.38;5078045;27;45489;-77
2022/04/30 05:25:04;;;;;;;;;34.25;32.00;;;;;12.50;93.55;102341.09;5075513;28;45402;-78
2022/04/30 05:27:30;;;;;;;;;34.00;28.75;;;;;12.40;93.69;102336.13;5078164;28;46028;-77
2022/04/30 05:29:56;;;;;;;;;33.00;31.75;;;;;12.40;94.96;102336.13;5077856;27;45461;-76
2022/04/30 05:32:21;;;;;;;;;32.00;28.00;;;;;12.50;94.69;102347.97;5081293;27;45294;-77
2022/04/30 05:34:47;;;;;;;;;35.50;31.00;;;;;12.52;95.64;102335.97;5086562;27;45334;-77
2022/04/30 05:37:13;;;;;;;;;42.25;32.50;;;;;12.68;95.11;102356.00;5079230;27;46938;-77
2022/04/30 05:39:38;;;;;;;;;38.00;33.25;;;;;12.71;95.11;102345.81;5078821;27;45390;-78
2022/04/30 05:42:05;;;;;;;;;34.75;31.75;;;;;12.68;93.98;102337.81;5078248;27;45274;-77
2022/04/30 05:44:30;;;;;;;;;35.00;32.00;;;;;12.74;93.72;102324.28;5078704;27;45397;-76
2022/04/30 05:46:56;;;;;;;;;36.75;33.25;;;;;12.99;94.09;102363.97;5078130;27;46557;-76
2022/04/30 05:49:22;;;;;;;;;37.25;31.50;;;;;13.05;92.69;102362.53;5077663;27;45359;-76
2022/04/30 05:51:49;;;;;;;;;33.75;30.50;;;;;12.97;93.08;102343.84;5077877;27;45412;-74
2022/04/30 05:54:16;;;;;;;;;34.75;29.50;;;;;13.01;92.59;102356.25;5077681;27;45436;-77
2022/04/30 05:56:41;;;;;;;;;36.00;32.00;;;;;12.94;91.68;102354.97;5077392;27;46353;-76
2022/04/30 05:59:08;;;;;;;;;37.75;32.00;;;;;12.98;91.73;102367.38;5077205;27;45324;-77
2022/04/30 06:01:34;;;;;;;;;35.75;31.25;;;;;12.94;91.76;102352.38;5077551;27;45233;-76
2022/04/30 06:04:00;;;;;;;;;42.75;36.00;;;;;13.02;91.44;102363.25;5077999;27;45497;-77
2022/04/30 06:06:26;;;;;;;;;37.75;32.00;;;;;13.01;90.90;102359.72;5077178;27;45559;-77
2022/04/30 06:08:51;;;;;;;;;33.50;30.50;;;;;13.08;90.76;102368.78;5077474;27;45362;-77
2022/04/30 06:11:17;;;;;;;;;29.50;24.00;;;;;13.08;90.63;102367.91;5075918;28;45459;-77
2022/04/30 06:13:42;;;;;;;;;33.00;29.00;;;;;13.07;90.19;102367.00;5077382;27;45325;-77
2022/04/30 06:16:08;;;;;;;;;32.50;31.00;;;;;13.03;90.13;102365.03;5076806;27;45318;-77
2022/04/30 06:18:34;;;;;;;;;37.25;31.00;;;;;13.14;89.01;102373.47;5082656;27;45324;-77
2022/04/30 06:20:59;;;;;;;;;33.75;29.75;;;;;13.09;89.03;102382.72;5083769;27;45255;-77
2022/04/30 06:23:25;;;;;;;;;38.00;28.75;;;;;13.13;88.47;102376.88;5078557;27;45543;-77
2022/04/30 06:25:51;;;;;;;;;43.00;33.00;;;;;13.20;87.83;102380.72;5077637;27;46403;-77
2022/04/30 06:28:16;;;;;;;;;33.50;28.50;;;;;13.15;87.67;102355.38;5077032;27;45895;-77
2022/04/30 06:30:42;;;;;;;;;33.00;29.75;;;;;13.31;86.80;102371.84;5077063;27;45492;-76
2022/04/30 06:33:08;;;;;;;;;29.25;28.50;;;;;13.30;86.45;102370.97;5075955;28;45383;-77
2022/04/30 06:35:36;;;;;;;;;32.25;29.00;;;;;13.39;85.48;102372.31;5092331;27;47862;-76
2022/04/30 06:38:02;;;;;;;;;37.75;31.75;;;;;13.44;85.44;102368.31;5076331;27;45482;-77
2022/04/30 06:40:28;;;;;;;;;28.50;27.75;;;;;13.51;84.92;102370.47;5076129;27;45401;-78
2022/04/30 06:42:54;;;;;;;;;34.75;31.00;;;;;13.65;84.30;102380.78;5075879;28;45334;-77
2022/04/30 06:45:20;;;;;;;;;31.75;27.75;;;;;13.66;83.72;102380.84;5076307;27;45625;-79
2022/04/30 06:47:46;;;;;;;;;32.00;29.00;;;;;13.66;82.99;102372.16;5076714;27;45402;-78
2022/04/30 06:50:11;;;;;;;;;35.25;29.75;;;;;13.65;82.23;102378.19;5076785;28;45398;-78
2022/04/30 06:58:05;;;;;;;;;32.50;28.00;;;;;13.46;82.28;102383.22;5076178;28;45889;-77
2022/04/30 07:03:15;;;;;;;;;34.25;30.25;;;;;13.48;82.46;102403.22;5077447;28;45281;-76
2022/04/30 07:05:41;;;;;;;;;26.25;24.25;;;;;13.34;82.09;102379.84;5078431;27;45422;-77
2022/04/30 07:08:06;;;;;;;;;30.00;27.50;;;;;13.49;81.56;102405.91;5080945;27;45397;-78
2022/04/30 07:10:32;;;;;;;;;27.25;25.75;;;;;13.47;81.50;102404.91;5079193;27;45363;-77
2022/04/30 07:12:58;;;;;;;;;36.75;30.25;;;;;13.37;81.46;102405.16;5077647;27;45416;-77
2022/04/30 07:15:23;;;;;;;;;32.00;28.00;;;;;13.31;81.68;102406.59;5092241;27;47468;-78
2022/04/30 07:17:49;;;;;;;;;32.00;27.75;;;;;13.34;81.76;102416.28;5075711;28;45271;-77
2022/04/30 07:20:14;;;;;;;;;28.00;26.00;;;;;13.31;81.52;102416.09;5076008;27;45298;-77
2022/04/30 07:22:40;;;;;;;;;30.75;26.75;;;;;13.26;81.95;102421.00;5076740;27;45216;-77
2022/04/30 07:25:06;;;;;;;;;27.75;22.75;;;;;13.17;81.93;102412.66;5075975;27;46204;-77
2022/04/30 07:27:32;;;;;;;;;32.75;26.50;;;;;13.15;82.03;102410.00;5076284;27;45424;-78
2022/04/30 07:29:57;;;;;;;;;32.25;25.75;;;;;13.20;81.76;102417.16;5075365;27;45407;-77
2022/04/30 07:32:23;;;;;;;;;30.75;27.75;;;;;13.23;81.69;102426.03;5076254;27;45536;-77
2022/04/30 07:34:48;;;;;;;;;31.00;27.00;;;;;13.18;81.47;102404.06;5075586;27;45987;-78
2022/04/30 07:37:14;;;;;;;;;25.25;23.25;;;;;13.32;81.43;102426.59;5075675;28;45333;-77
2022/04/30 07:39:40;;;;;;;;;27.50;25.50;;;;;13.33;81.23;102414.47;5076126;27;45433;-78
2022/04/30 07:42:06;;;;;;;;;29.50;24.75;;;;;13.44;81.30;102426.44;5075880;27;45372;-76
2022/04/30 07:44:31;;;;;;;;;29.25;24.75;;;;;13.49;81.01;102418.03;5076361;27;46417;-77
2022/04/30 07:46:58;;;;;;;;;29.50;25.00;;;;;13.53;81.20;102417.38;5076236;27;45377;-78
2022/04/30 07:49:24;;;;;;;;;28.75;28.25;;;;;13.56;81.01;102410.66;5081142;27;45332;-76
2022/04/30 07:51:53;;;;;;;;;36.00;30.75;;;;;13.60;80.62;102420.44;5086792;27;45439;-79
2022/04/30 07:54:20;;;;;;;;;25.75;23.50;;;;;13.64;80.66;102418.03;5081321;27;46187;-79
2022/04/30 07:56:47;;;;;;;;;29.75;25.50;;;;;13.71;80.72;102412.34;5080338;27;45353;-79
2022/04/30 07:59:13;;;;;;;;;29.50;25.25;;;;;13.75;80.29;102414.34;5079462;27;45305;-77
2022/04/30 08:01:39;;;;;;;;;28.50;24.25;;;;;13.80;80.37;102425.00;5079796;27;45353;-78
2022/04/30 08:04:04;;;;;;;;;29.50;25.50;;;;;13.86;80.61;102415.84;5078946;27;45596;-78
2022/04/30 08:06:30;;;;;;;;;34.25;28.50;;;;;13.95;79.56;102398.94;5079449;27;45355;-79
2022/04/30 08:08:55;;;;;;;;;32.00;27.25;;;;;14.15;78.96;102413.06;5079213;27;45161;-79
2022/04/30 08:11:21;;;;;;;;;30.75;27.00;;;;;14.29;77.63;102416.47;5079066;28;45231;-79
2022/04/30 08:13:47;;;;;;;;;27.25;25.50;;;;;14.40;77.12;102410.16;5078946;27;46436;-79
2022/04/30 08:16:12;;;;;;;;;32.25;24.00;;;;;14.46;76.61;102409.59;5078763;28;45532;-78
2022/04/30 08:18:38;;;;;;;;;27.00;23.75;;;;;14.42;75.67;102405.88;5079090;27;45373;-76
2022/04/30 08:21:06;;;;;;;;;27.50;25.25;;;;;14.37;75.83;102408.25;5079072;27;45413;-77
2022/04/30 08:23:33;;;;;;;;;24.00;22.50;;;;;14.23;76.00;102381.44;5079147;27;45388;-77
2022/04/30 08:25:59;;;;;;;;;31.50;26.25;;;;;14.34;75.68;102407.19;5079020;28;45265;-76
2022/04/30 08:28:25;;;;;;;;;33.00;28.50;;;;;14.28;76.03;102404.25;5078630;27;45300;-77
2022/04/30 08:30:54;;;;;;;;;27.25;25.75;;;;;14.34;75.59;102407.19;5079080;27;45594;-76
2022/04/30 08:33:19;;;;;;;;;25.50;23.00;;;;;14.38;75.16;102406.56;5077052;27;46235;-76
2022/04/30 08:35:45;;;;;;;;;23.75;23.00;;;;;14.37;75.56;102402.16;5079431;27;45351;-75
2022/04/30 08:38:10;;;;;;;;;24.25;23.00;;;;;14.36;74.05;102408.16;5083757;28;45370;-75
2022/04/30 08:40:41;;;;;;;;;28.75;23.00;;;;;14.32;74.02;102407.13;5081448;27;45331;-77
2022/04/30 08:43:14;;;;;;;;;23.00;22.25;;;;;14.27;73.36;102411.16;5079739;27;45465;-77
2022/04/30 08:45:42;;;;;;;;;23.25;19.25;;;;;14.22;72.59;102408.28;5078769;27;45314;-77
2022/04/30 08:48:09;;;;;;;;;27.00;21.50;;;;;14.17;73.13;102401.97;5079231;27;45491;-78
2022/04/30 08:50:36;;;;;;;;;19.75;17.00;;;;;14.14;71.88;102401.78;5079245;27;45520;-78
2022/04/30 08:53:03;;;;;;;;;23.25;18.50;;;;;14.11;72.39;102404.19;5077932;27;45405;-78
2022/04/30 08:55:28;;;;;;;;;24.75;22.50;;;;;14.10;72.53;102407.59;5078641;27;45751;-78
2022/04/30 08:57:54;;;;;;;;;20.75;20.25;;;;;13.98;72.52;102376.59;5078618;27;45238;-79
2022/04/30 09:00:20;;;;;;;;;23.50;18.75;;;;;14.09;72.42;102382.41;5078100;27;45449;-79
2022/04/30 09:02:57;;;;;;;;;26.00;20.75;;;;;14.19;72.38;102400.34;5076903;27;46507;-80
2022/04/30 09:05:30;;;;;;;;;17.50;15.00;;;;;14.18;69.24;102390.72;5078058;27;45499;-80
2022/04/30 09:07:56;;;;;;;;;18.75;18.50;;;;;14.13;68.48;102394.78;5078426;27;45386;-79
2022/04/30 09:10:42;;;;;;;;;20.50;18.00;;;;;14.07;68.29;102382.28;5078297;27;45231;-78
2022/04/30 09:13:09;;;;;;;;;19.50;17.00;;;;;14.16;68.40;102384.53;5077318;27;46272;-78
2022/04/30 09:15:37;;;;;;;;;21.25;18.50;;;;;14.22;68.00;102394.41;5077997;27;45476;-78
2022/04/30 09:18:04;;;;;;;;;23.25;17.75;;;;;14.26;68.29;102387.63;5077855;27;45255;-78
2022/04/30 09:20:40;;;;;;;;;18.25;18.25;;;;;14.25;67.52;102381.53;5078657;27;45210;-79
2022/04/30 09:23:06;;;;;;;;;18.25;16.00;;;;;14.23;67.20;102380.56;5084493;27;45606;-79
2022/04/30 09:25:31;;;;;;;;;20.00;16.25;;;;;14.20;65.29;102385.59;5082546;28;45873;-78
2022/04/30 09:28:00;;;;;;;;;18.00;15.50;;;;;14.19;63.88;102379.50;5080108;28;45400;-79
2022/04/30 09:30:30;;;;;;;;;18.50;17.00;;;;;14.19;64.87;102384.72;5078992;27;45496;-80
2022/04/30 09:33:00;;;;;;;;;17.50;16.25;;;;;14.20;65.15;102373.44;5077729;27;46081;-78
2022/04/30 09:38:10;;;;;;;;;16.25;15.75;;;;;14.26;64.56;102365.06;5077909;27;45427;-80
2022/04/30 09:40:36;;;;;;;;;19.00;14.00;;;;;14.36;64.11;102374.31;5077949;27;45498;-78
2022/04/30 09:43:04;;;;;;;;;16.75;15.25;;;;;14.45;63.31;102377.41;5077603;27;46248;-78
2022/04/30 09:45:35;;;;;;;;;20.25;15.50;;;;;14.49;64.04;102376.75;5077955;27;45760;-78
2022/04/30 09:56:34;;;;;;;;;15.25;13.00;;;;;14.62;61.10;102373.09;5077636;27;45258;-77
2022/04/30 09:59:05;;;;;;;;;15.25;15.25;;;;;14.66;61.91;102377.66;5078143;27;45346;-79
2022/04/30 10:01:34;;;;;;;;;15.75;12.50;;;;;14.67;60.19;102369.06;5078414;27;45171;-79
2022/04/30 10:04:06;;;;;;;;;15.50;13.25;;;;;14.72;60.12;102369.31;5077497;27;45391;-79
2022/04/30 10:06:33;;;;;;;;;15.25;12.00;;;;;14.72;59.74;102365.78;5077804;27;45823;-78
2022/04/30 10:09:00;;;;;;;;;11.00;11.00;;;;;14.80;59.11;102370.59;5080904;27;45367;-78
2022/04/30 10:11:41;;;;;;;;;13.75;12.75;;;;;14.85;58.60;102365.63;5083830;27;45526;-79
2022/04/30 10:14:16;;;;;;;;;20.75;14.75;;;;;14.91;58.62;102365.06;5079590;27;45524;-77
2022/04/30 10:16:55;;;;;;;;;13.25;10.75;;;;;14.94;58.50;102357.41;5078455;28;45241;-77
2022/04/30 10:19:21;;;;;;;;;10.00;10.00;;;;;15.00;58.49;102361.22;5077815;27;45514;-77
2022/04/30 10:22:11;;;;;;;;;10.25;10.25;;;;;15.05;57.78;102360.53;5077571;27;45702;-79
2022/04/30 10:24:48;;;;;;;;;15.75;12.00;;;;;15.10;58.07;102359.97;5076875;28;45461;-78
2022/04/30 10:27:15;;;;;;;;;16.00;15.00;;;;;15.13;58.36;102362.75;5077099;27;45464;-78
2022/04/30 10:29:53;;;;;;;;;14.75;14.00;;;;;15.12;58.46;102367.84;5077035;27;45325;-78
2022/04/30 10:32:32;;;;;;;;;18.75;13.50;;;;;15.13;58.49;102359.22;5077562;27;45616;-78
2022/04/30 10:34:59;;;;;;;;;15.50;13.50;;;;;15.13;58.88;102352.31;5078264;27;45351;-78
2022/04/30 10:37:36;;;;;;;;;18.00;15.25;;;;;15.16;58.33;102351.56;5076093;27;45855;-78
2022/04/30 10:40:08;;;;;;;;;16.75;14.25;;;;;15.17;58.98;102340.31;5078494;27;45460;-79
2022/04/30 10:42:45;;;;;;;;;13.00;12.00;;;;;15.17;59.55;102330.75;5078501;28;45501;-78
2022/04/30 10:45:15;;;;;;;;;21.00;17.75;;;;;15.33;58.88;102339.34;5077483;27;46199;-79
2022/04/30 10:47:58;;;;;;;;;17.25;16.50;;;;;15.25;58.28;102323.31;5076232;28;45870;-78
2022/04/30 10:50:24;;;;;;;;;15.50;13.25;;;;;15.37;58.50;102337.78;5075996;28;45288;-78
2022/04/30 10:52:51;;;;;;;;;13.00;13.00;;;;;15.41;58.76;102343.25;5076861;27;45264;-80
2022/04/30 10:55:19;;;;;;;;;15.75;15.75;;;;;15.38;57.48;102324.84;5077806;28;47344;-80
2022/04/30 10:57:46;;;;;;;;;14.25;12.25;;;;;15.49;57.29;102335.78;5084301;27;45916;-79
2022/04/30 11:00:13;;;;;;;;;10.25;9.50;;;;;15.57;56.45;102330.94;5081227;27;45362;-80
2022/04/30 11:02:39;;;;;;;;;15.00;12.00;;;;;15.60;55.49;102326.78;5076902;28;45623;-79
2022/04/30 11:05:17;;;;;;;;;10.75;10.00;;;;;15.63;55.30;102326.00;5076008;28;47140;-78
2022/04/30 11:07:44;;;;;;;;;12.50;11.75;;;;;15.60;55.99;102320.66;5077311;27;45344;-79
2022/04/30 11:10:11;;;;;;;;;15.50;13.00;;;;;15.70;56.10;102322.00;5076599;27;45466;-79
2022/04/30 11:12:36;;;;;;;;;11.50;10.50;;;;;15.69;53.73;102305.44;5077137;27;45607;-79
2022/04/30 11:15:03;;;;;;;;;9.50;9.50;;;;;15.78;53.74;102315.41;5074929;28;46981;-77
2022/04/30 11:17:28;;;;;;;;;7.25;6.50;;;;;15.73;53.26;102298.66;5076580;27;45907;-76
2022/04/30 11:19:55;;;;;;;;;8.00;7.50;;;;;15.81;53.42;102296.41;5076248;27;45437;-77
2022/04/30 11:22:22;;;;;;;;;9.25;9.00;;;;;15.94;53.37;102312.75;5075471;27;45280;-79
2022/04/30 11:24:48;;;;;;;;;9.50;8.25;;;;;15.93;53.38;102297.91;5080356;27;45476;-77
2022/04/30 11:27:14;;;;;;;;;10.50;9.00;;;;;16.04;51.07;102301.00;5078773;27;45873;-78
2022/04/30 11:29:55;;;;;;;;;9.50;8.00;;;;;16.14;49.59;102301.44;5080343;27;45323;-78
2022/04/30 11:32:22;;;;;;;;;4.75;4.75;;;;;16.07;48.98;102288.06;5080388;27;45380;-79
2022/04/30 11:34:49;;;;;;;;;7.50;7.50;;;;;16.17;49.38;102305.09;5080775;27;46056;-78
2022/04/30 11:37:15;;;;;;;;;12.00;8.00;;;;;16.22;49.88;102297.44;5083983;27;45897;-78
2022/04/30 11:39:41;;;;;;;;;10.75;6.75;;;;;16.25;50.12;102295.88;5099261;27;45373;-79
2022/04/30 11:42:07;;;;;;;;;8.75;6.75;;;;;16.22;49.91;102284.38;5081147;27;45306;-79
2022/04/30 11:44:33;;;;;;;;;7.75;6.50;;;;;16.22;48.57;102279.16;5084896;27;45479;-78
2022/04/30 11:46:58;;;;;;;;;6.00;6.00;;;;;16.32;48.65;102286.59;5085968;27;45250;-78
2022/04/30 11:49:26;;;;;;;;;5.25;5.00;;;;;16.30;47.92;102277.78;5081084;28;45218;-78
2022/04/30 11:51:55;;;;;;;;;5.50;5.50;;;;;16.35;48.90;102277.97;5079918;27;45351;-78
2022/04/30 11:54:24;;;;;;;;;6.25;5.00;;;;;16.42;49.29;102268.69;5079570;27;45406;-78